Delray Beach, FL

7:58 AM EDT on August 31, 2014 (GMT -0400)
RAWS LOXAHATCHEE FL US | Change Station
CLOSE
Current Station
Personal Weather Station
Location: Delray Beach, FL
Elevation: 17 ft
Nearby Weather Stations

Elev 17 ft 26.50 °N, 80.22 °W | Updated 26 minutes ago

Partly Cloudy
Partly Cloudy
78 °F
Feels Like 81 °F
N
1
Wind Variable Wind from East
Gusts 5.0 mph

Today
High -- | Low -- °F
--% Chance of Precip.
Yesterday
High -- | Low -- °F
Precip. -- in
7:00 AM 7:41 PM
Waxing Crescent, 30% visible
Pressure 30.11 in
Visibility 10.0 miles
Clouds Scattered Clouds 2600 ft
Scattered Clouds 18000 ft
Heat Index 81 °F
Dew Point 76 °F
Humidity 93%
Rainfall 0.01 in
Snow Depth Not available.
UV 1 out of 12
Pollen 4.40 out of 12
PM2.5 Moderate
Flu Activity Not available.
METAR KPMP 311153Z 10007KT 10SM SCT026 SCT180 29/23 A3010 RMK AO2 SLP195 70017 T02940233 10300 20289 51007 $

More Conditions Fewer Conditions

Pressure 30.11 in
Visibility 10.0 miles
Clouds Scattered Clouds 2600 ft
Scattered Clouds 18000 ft
Heat Index 81 °F
Dew Point 76 °F
Humidity 93%
Rainfall 0.01 in
Snow Depth Not available.
UV 1 out of 12
Pollen 4.40 out of 12
PM2.5 Moderate
Flu Activity Not available.
METAR KPMP 311153Z 10007KT 10SM SCT026 SCT180 29/23 A3010 RMK AO2 SLP195 70017 T02940233 10300 20289 51007 $

More Conditions Fewer Conditions

10-Day Weather Forecast

Almanac

Astronomy

Aug. 31, 2014 Rise Set
Actual Time 7:00 AM EDT 7:41 PM EDT
Civil Twilight 6:36 AM EDT 8:05 PM EDT
Nautical Twilight 6:08 AM EDT 8:32 PM EDT
Astronomical Twilight 5:40 AM EDT 9:00 PM EDT
Moon 12:10 PM EDT 11:31 PM EDT
Length of Visible Light 13h 28m
Length of Day
12h 41m
Tomorrow will be 1m 29s shorter.
Waxing Crescent, 30% of the Moon is Illuminated
Today
Waxing Crescent
Sep 2
First Quarter
Sep 8
Full
Sep 15
Last Quarter
Sep 24
New

Today's Extremes

State Highs State Lows

Community

WunderPhotos

Upload Photos

1,748,848 photos uploaded!

Nearby

Air Quality

  Air Quality AQ Index Pollutant
Yesterday Moderate
PM2.5
Yesterday Good
OZONE
Current Moderate
PM2.5
Sunday Moderate
PM2.5
Sunday Good
OZONE
Monday Good
OZONE
Monday Good
PM2.5

Snow Depth

Station Depth Elevation
No new snow has been reported.

Earthquake Activity

City Distance Mag. Time & Date
No recent earthquake activity has been reported nearby.
Minimum magnitude displayed is 2.5.

Coastal Water Temperatures

Place Temperature
Lake Worth, FL 87.1 °F
Virginia Key, FL 86.0 °F

Nearby Weather Stations